createdAt,value
2022-08-05T00:00:16.739Z,0.70
2022-08-05T00:02:51.563Z,0.73
2022-08-05T00:06:01.666Z,0.70
2022-08-05T00:08:32.977Z,0.70
2022-08-05T00:11:01.158Z,0.30
2022-08-05T00:13:39.503Z,0.50
2022-08-05T00:16:12.275Z,0.88
2022-08-05T00:21:09.076Z,0.63
2022-08-05T00:23:46.470Z,0.50
2022-08-05T00:26:20.698Z,0.77
2022-08-05T00:28:49.346Z,0.77
2022-08-05T00:31:16.405Z,0.70
2022-08-05T00:34:54.617Z,0.88
2022-08-05T00:37:12.677Z,0.50
2022-08-05T00:42:37.782Z,0.85
2022-08-05T00:45:08.482Z,0.82
2022-08-05T00:47:56.475Z,1.02
2022-08-05T00:50:25.248Z,1.10
2022-08-05T00:52:54.876Z,1.45
2022-08-05T00:55:22.663Z,1.20
2022-08-05T00:57:58.431Z,1.25
2022-08-05T01:00:30.055Z,1.40
2022-08-05T01:02:59.820Z,1.30
2022-08-05T01:05:27.580Z,1.25
2022-08-05T01:08:41.363Z,1.33
2022-08-05T01:10:51.707Z,1.13
2022-08-05T01:13:58.264Z,0.80
2022-08-05T01:16:47.384Z,0.90
2022-08-05T01:19:46.154Z,0.88
2022-08-05T01:22:27.943Z,1.35
2022-08-05T01:25:19.832Z,0.88
2022-08-05T01:30:34.157Z,0.85
2022-08-05T01:33:06.262Z,0.90
2022-08-05T01:35:51.240Z,0.77
2022-08-05T01:38:27.621Z,0.70
2022-08-05T01:41:01.888Z,0.80
2022-08-05T01:43:30.476Z,0.90
2022-08-05T01:45:58.634Z,1.00
2022-08-05T01:48:35.643Z,1.15
2022-08-05T01:51:11.940Z,0.90
2022-08-05T01:53:56.988Z,0.85
2022-08-05T01:58:12.359Z,0.82
2022-08-05T01:59:21.537Z,1.40
2022-08-05T02:01:51.524Z,0.80
2022-08-05T02:04:23.632Z,0.90
2022-08-05T02:06:50.658Z,0.90
2022-08-05T02:09:17.249Z,0.80
2022-08-05T02:12:06.494Z,1.17
2022-08-05T02:14:44.479Z,1.20
2022-08-05T02:18:15.187Z,1.05
2022-08-05T02:20:20.797Z,1.23
2022-08-05T02:22:56.907Z,0.90
2022-08-05T02:25:33.257Z,1.15
2022-08-05T02:28:04.298Z,1.00
2022-08-05T02:30:51.898Z,0.85
2022-08-05T02:33:24.634Z,1.27
2022-08-05T02:36:03.463Z,1.20
2022-08-05T02:38:35.013Z,1.10
2022-08-05T02:41:14.578Z,1.35
2022-08-05T02:46:30.915Z,1.00
2022-08-05T02:48:57.873Z,1.00
2022-08-05T02:51:28.490Z,0.88
2022-08-05T02:54:35.082Z,1.70
2022-08-05T02:57:01.844Z,0.90
2022-08-05T02:59:30.010Z,1.10
2022-08-05T03:02:17.251Z,1.25
2022-08-05T03:04:45.542Z,0.95
2022-08-05T03:07:17.669Z,1.05
2022-08-05T03:10:00.122Z,1.30
2022-08-05T03:12:36.800Z,1.15
2022-08-05T03:15:09.382Z,1.23
2022-08-05T03:17:41.936Z,1.50
2022-08-05T03:20:11.936Z,1.30
2022-08-05T03:22:49.775Z,1.10
2022-08-05T03:25:33.938Z,1.08
2022-08-05T03:28:07.215Z,1.00
2022-08-05T03:30:36.576Z,1.20
2022-08-05T03:33:05.581Z,0.90
2022-08-05T03:35:34.062Z,1.20
2022-08-05T03:38:08.446Z,1.20
2022-08-05T03:40:35.831Z,1.02
2022-08-05T03:43:58.985Z,1.00
2022-08-05T03:45:57.201Z,1.05
2022-08-05T03:48:29.808Z,1.63
2022-08-05T03:52:50.203Z,0.75
2022-08-05T03:55:06.751Z,0.93
2022-08-05T03:57:16.674Z,0.70
2022-08-05T04:00:04.158Z,0.88
2022-08-05T04:02:52.251Z,1.20
2022-08-05T04:05:34.012Z,1.20
2022-08-05T04:08:30.056Z,0.63
2022-08-05T04:10:53.604Z,0.98
2022-08-05T04:13:21.749Z,1.15
2022-08-05T04:16:02.752Z,1.33
2022-08-05T04:18:30.206Z,0.93
2022-08-05T04:20:58.365Z,1.33
2022-08-05T04:24:05.783Z,0.93
2022-08-05T04:26:14.541Z,0.90
2022-08-05T04:28:50.767Z,1.00
2022-08-05T04:31:18.230Z,1.00
2022-08-05T04:34:17.594Z,1.33
2022-08-05T04:36:46.006Z,0.90
2022-08-05T04:39:18.035Z,1.35
2022-08-05T04:41:45.722Z,1.15
2022-08-05T04:44:12.788Z,1.25
2022-08-05T04:46:39.575Z,0.88
2022-08-05T04:49:12.294Z,1.05
2022-08-05T04:51:45.054Z,1.00
2022-08-05T04:54:12.159Z,1.27
2022-08-05T04:56:39.154Z,1.20
2022-08-05T04:59:22.400Z,1.15
2022-08-05T05:02:35.211Z,1.60
2022-08-05T05:04:43.835Z,1.10
2022-08-05T05:07:15.899Z,1.00
2022-08-05T05:09:44.488Z,1.70
2022-08-05T05:12:11.605Z,1.15
2022-08-05T05:14:38.410Z,1.00
2022-08-05T05:17:22.868Z,1.13
2022-08-05T05:19:53.726Z,1.00
2022-08-05T05:22:24.395Z,0.95
2022-08-05T05:24:59.925Z,1.23
2022-08-05T05:27:44.254Z,1.00
2022-08-05T05:30:15.709Z,1.10
2022-08-05T05:32:55.733Z,1.27
2022-08-05T05:35:22.855Z,1.70
2022-08-05T05:37:59.539Z,1.50
2022-08-05T05:40:28.318Z,0.85
2022-08-05T05:42:55.314Z,1.10
2022-08-05T05:45:24.759Z,1.05
2022-08-05T05:48:04.916Z,1.05
2022-08-05T05:50:34.984Z,1.13
2022-08-05T05:53:20.866Z,1.35
2022-08-05T05:55:52.329Z,1.50
2022-08-05T05:58:32.026Z,1.17
2022-08-05T06:01:12.146Z,0.82
2022-08-05T06:04:00.352Z,1.08
2022-08-05T06:06:33.040Z,1.10
2022-08-05T06:09:03.246Z,1.33
2022-08-05T06:11:31.177Z,1.10
2022-08-05T06:13:57.852Z,1.08
2022-08-05T06:16:36.643Z,1.08
2022-08-05T06:19:07.163Z,1.05
2022-08-05T06:21:36.811Z,1.00
2022-08-05T06:24:12.233Z,1.17
2022-08-05T06:26:51.370Z,0.90
2022-08-05T06:29:42.789Z,1.20
2022-08-05T06:32:25.012Z,1.30
2022-08-05T06:34:53.570Z,0.90
2022-08-05T06:37:56.546Z,1.00
2022-08-05T06:40:10.522Z,0.95
2022-08-05T06:42:39.708Z,2.25
2022-08-05T06:45:08.807Z,0.93
2022-08-05T06:48:44.358Z,1.10
2022-08-05T06:50:23.603Z,0.93
2022-08-05T06:53:03.648Z,1.50
2022-08-05T06:55:37.097Z,0.88
2022-08-05T06:58:20.104Z,0.90
2022-08-05T07:00:51.127Z,0.85
2022-08-05T07:03:17.778Z,1.13
2022-08-05T07:05:46.463Z,1.30
2022-08-05T07:08:13.484Z,1.30
2022-08-05T07:10:52.865Z,1.15
2022-08-05T07:13:52.446Z,1.10
2022-08-05T07:16:08.146Z,0.73
2022-08-05T07:18:38.746Z,1.20
2022-08-05T07:21:14.342Z,0.68
2022-08-05T07:23:52.561Z,1.55
2022-08-05T07:26:22.759Z,1.15
2022-08-05T07:28:51.536Z,1.73
2022-08-05T07:31:18.290Z,1.13
2022-08-05T07:34:08.304Z,1.27
2022-08-05T07:36:35.129Z,1.42
2022-08-05T07:39:06.302Z,1.02
2022-08-05T07:42:07.901Z,1.00
2022-08-05T07:44:20.300Z,0.98
2022-08-05T07:46:49.533Z,1.70
2022-08-05T07:49:18.062Z,0.95
2022-08-05T07:51:53.863Z,0.80
2022-08-05T07:54:26.261Z,1.00
2022-08-05T07:57:02.103Z,1.08
2022-08-05T07:59:41.070Z,1.10
2022-08-05T08:02:15.475Z,0.98
2022-08-05T08:04:48.554Z,1.85
2022-08-05T08:07:16.484Z,1.20
2022-08-05T08:09:45.697Z,1.10
2022-08-05T08:12:48.894Z,1.27
2022-08-05T08:15:02.622Z,0.93
2022-08-05T08:17:30.714Z,1.20
2022-08-05T08:20:21.859Z,1.63
2022-08-05T08:22:43.880Z,1.02
2022-08-05T08:25:16.098Z,1.40
2022-08-05T08:27:47.329Z,1.20
2022-08-05T08:30:27.006Z,0.68
2022-08-05T08:33:08.209Z,1.23
2022-08-05T08:35:41.228Z,0.98
2022-08-05T08:38:35.249Z,1.23
2022-08-05T08:41:06.681Z,1.75
2022-08-05T08:45:22.490Z,0.80
2022-08-05T08:46:23.598Z,1.27
2022-08-05T08:49:06.329Z,0.75
2022-08-05T08:52:03.455Z,0.75
2022-08-05T08:54:30.537Z,0.82
2022-08-05T08:56:59.656Z,0.90
2022-08-05T08:59:27.714Z,1.05
2022-08-05T09:02:01.365Z,0.65
2022-08-05T09:04:30.424Z,0.77
2022-08-05T09:06:57.840Z,1.00
2022-08-05T09:09:26.052Z,0.80
2022-08-05T09:12:19.975Z,0.80
2022-08-05T09:14:56.617Z,0.75
2022-08-05T09:17:42.985Z,0.75
2022-08-05T09:20:21.046Z,0.75
2022-08-05T09:23:10.226Z,0.88
2022-08-05T09:26:03.068Z,0.77
2022-08-05T09:28:33.831Z,0.60
2022-08-05T09:31:23.442Z,1.00
2022-08-05T09:33:56.756Z,0.75
2022-08-05T09:36:27.893Z,0.70
2022-08-05T09:39:18.049Z,0.70
2022-08-05T09:42:05.211Z,0.68
2022-08-05T09:44:40.047Z,0.93
2022-08-05T09:47:13.995Z,0.82
2022-08-05T09:50:01.425Z,0.80
2022-08-05T09:52:29.088Z,0.70
2022-08-05T09:54:56.767Z,0.50
2022-08-05T09:57:39.471Z,0.82
2022-08-05T10:00:18.543Z,0.65
2022-08-05T10:02:51.129Z,0.50
2022-08-05T10:05:23.817Z,0.55
2022-08-05T10:08:34.631Z,0.75
2022-08-05T10:10:44.079Z,0.43
2022-08-05T10:13:10.704Z,0.80
2022-08-05T10:15:41.401Z,0.70
2022-08-05T10:18:12.796Z,0.70
2022-08-05T10:20:48.323Z,0.80
2022-08-05T10:23:56.174Z,0.75
2022-08-05T10:26:17.287Z,0.77
2022-08-05T10:28:45.310Z,0.55
2022-08-05T10:32:54.067Z,0.82
2022-08-05T10:34:07.191Z,0.80
2022-08-05T10:36:39.583Z,1.27
2022-08-05T10:39:24.464Z,0.80
2022-08-05T10:42:12.617Z,0.70
2022-08-05T10:44:45.035Z,0.65
2022-08-05T10:47:26.864Z,0.73
2022-08-05T10:50:31.659Z,0.55
2022-08-05T10:52:52.555Z,0.98
2022-08-05T10:55:26.873Z,0.82
2022-08-05T10:58:20.467Z,0.90
2022-08-05T11:00:47.574Z,0.73
2022-08-05T11:03:25.120Z,1.02
2022-08-05T11:06:15.229Z,0.90
2022-08-05T11:09:18.635Z,1.08
2022-08-05T11:11:54.067Z,0.98
2022-08-05T11:15:01.241Z,0.88
2022-08-05T11:17:59.813Z,1.17
2022-08-05T11:20:32.108Z,0.57
2022-08-05T11:23:05.886Z,0.90
2022-08-05T11:26:04.343Z,0.85
2022-08-05T11:28:23.225Z,0.93
2022-08-05T11:30:55.554Z,0.80
2022-08-05T11:33:44.013Z,0.73
2022-08-05T11:36:14.543Z,0.82
2022-08-05T11:38:46.072Z,0.90
2022-08-05T11:41:56.223Z,0.73
2022-08-05T11:44:40.463Z,0.65
2022-08-05T11:47:14.982Z,1.00
2022-08-05T11:49:49.871Z,1.00
2022-08-05T11:52:30.999Z,0.88
2022-08-05T11:54:58.587Z,0.55
2022-08-05T11:58:08.110Z,0.70
2022-08-05T12:00:29.138Z,0.82
2022-08-05T12:02:57.114Z,0.73
2022-08-05T12:05:32.304Z,0.65
2022-08-05T12:08:10.742Z,0.60
2022-08-05T12:10:45.302Z,1.00
2022-08-05T12:13:27.610Z,0.70
2022-08-05T12:16:05.333Z,1.15
2022-08-05T12:18:40.877Z,0.95
2022-08-05T12:21:17.710Z,0.90
2022-08-05T12:24:04.972Z,1.00
2022-08-05T12:26:44.135Z,0.82
2022-08-05T12:29:22.527Z,0.90
2022-08-05T12:31:57.185Z,0.60
2022-08-05T12:34:28.786Z,1.02
2022-08-05T12:37:05.908Z,0.63
2022-08-05T12:39:37.134Z,0.80
2022-08-05T12:42:09.483Z,0.55
2022-08-05T12:44:43.127Z,1.10
2022-08-05T12:47:12.604Z,0.68
2022-08-05T12:50:03.565Z,0.45
2022-08-05T12:52:35.329Z,0.70
2022-08-05T12:55:22.483Z,0.60
2022-08-05T12:58:48.829Z,0.70
2022-08-05T13:02:03.682Z,0.52
2022-08-05T13:03:32.241Z,0.80
2022-08-05T13:05:59.402Z,0.70
2022-08-05T13:08:29.968Z,0.70
2022-08-05T13:11:02.563Z,0.60
2022-08-05T13:14:06.133Z,1.30
2022-08-05T13:16:19.380Z,0.75
2022-08-05T13:18:55.127Z,0.63
2022-08-05T13:21:28.267Z,1.00
2022-08-05T13:24:05.651Z,1.08
2022-08-05T13:26:32.316Z,1.25
2022-08-05T13:28:58.962Z,0.88
2022-08-05T13:31:33.879Z,0.85
2022-08-05T13:34:23.604Z,1.20
2022-08-05T13:36:53.471Z,0.82
2022-08-05T13:40:13.438Z,0.95
2022-08-05T13:42:06.891Z,4.40
2022-08-05T13:44:34.789Z,0.98
2022-08-05T13:47:08.707Z,0.90
2022-08-05T13:49:36.112Z,0.90
2022-08-05T13:52:14.808Z,1.10
2022-08-05T13:54:41.964Z,0.85
2022-08-05T13:57:12.909Z,0.80
2022-08-05T13:59:57.695Z,0.70
2022-08-05T14:02:26.444Z,0.80
2022-08-05T14:04:53.328Z,0.85
2022-08-05T14:07:26.439Z,0.80
2022-08-05T14:10:19.176Z,0.80
2022-08-05T14:12:54.951Z,0.80
2022-08-05T14:16:04.794Z,0.73
2022-08-05T14:18:17.330Z,0.70
2022-08-05T14:20:48.665Z,0.88
2022-08-05T14:23:25.026Z,0.70
2022-08-05T14:25:58.477Z,0.98
2022-08-05T14:28:29.627Z,0.90
2022-08-05T14:31:00.644Z,1.02
2022-08-05T14:33:32.642Z,0.85
2022-08-05T14:36:14.972Z,0.75
2022-08-05T14:38:41.818Z,0.80
2022-08-05T14:41:08.346Z,0.70
2022-08-05T14:44:01.473Z,0.68
2022-08-05T14:46:28.529Z,0.90
2022-08-05T14:48:58.185Z,0.45
2022-08-05T14:51:25.401Z,0.52
2022-08-05T14:54:26.843Z,0.60
2022-08-05T14:56:46.861Z,0.60
2022-08-05T14:59:14.739Z,0.70
2022-08-05T15:01:48.509Z,0.60
2022-08-05T15:04:20.570Z,0.50
2022-08-05T15:06:48.946Z,0.70
2022-08-05T15:09:54.007Z,0.73
2022-08-05T15:12:06.800Z,0.68
2022-08-05T15:14:48.348Z,0.57
2022-08-05T15:20:04.637Z,0.60
2022-08-05T15:22:31.165Z,0.60
2022-08-05T15:24:57.694Z,0.80
2022-08-05T15:27:25.694Z,0.80
2022-08-05T15:29:54.235Z,0.75
2022-08-05T15:32:28.795Z,0.68
2022-08-05T15:34:56.684Z,0.90
2022-08-05T15:38:08.657Z,0.80
2022-08-05T15:41:00.645Z,0.88
2022-08-05T15:43:12.768Z,1.88
2022-08-05T15:45:45.630Z,1.15
2022-08-05T15:48:14.394Z,0.80
2022-08-05T15:50:41.544Z,0.70
2022-08-05T15:53:10.751Z,0.60
2022-08-05T15:56:03.920Z,0.50
2022-08-05T15:58:27.482Z,1.02
2022-08-05T16:01:11.987Z,0.70
2022-08-05T16:03:41.350Z,0.60
2022-08-05T16:06:09.124Z,0.85
2022-08-05T16:08:38.632Z,0.57
2022-08-05T16:11:06.878Z,0.52
2022-08-05T16:13:35.050Z,0.60
2022-08-05T16:16:05.289Z,0.95
2022-08-05T16:18:32.920Z,0.65
2022-08-05T16:21:03.894Z,0.70
2022-08-05T16:23:53.147Z,0.40
2022-08-05T16:26:18.323Z,0.82
2022-08-05T16:28:46.732Z,0.50
2022-08-05T16:31:13.288Z,0.70
2022-08-05T16:33:42.013Z,0.63
2022-08-05T16:36:08.909Z,0.70
2022-08-05T16:38:35.445Z,0.75
2022-08-05T16:42:12.483Z,0.70
2022-08-05T16:43:54.310Z,0.60
2022-08-05T16:46:24.394Z,0.60
2022-08-05T16:48:51.806Z,0.65
2022-08-05T16:51:19.461Z,0.90
2022-08-05T16:54:04.365Z,0.70
2022-08-05T16:56:34.967Z,0.70
2022-08-05T16:59:07.626Z,0.77
2022-08-05T17:01:54.650Z,0.70
2022-08-05T17:04:27.125Z,0.70
2022-08-05T17:07:00.357Z,0.60
2022-08-05T17:09:29.570Z,0.77
2022-08-05T17:11:59.348Z,0.90
2022-08-05T17:14:36.720Z,0.70
2022-08-05T17:17:05.896Z,0.80
2022-08-05T17:19:32.389Z,0.93
2022-08-05T17:22:00.828Z,1.10
2022-08-05T17:24:38.496Z,0.70
2022-08-05T17:27:09.043Z,0.60
2022-08-05T17:29:41.262Z,0.60
2022-08-05T17:32:17.042Z,1.00
2022-08-05T17:34:49.126Z,1.65
2022-08-05T17:37:40.020Z,3.90
2022-08-05T17:40:10.799Z,5.10
2022-08-05T17:42:42.863Z,4.05
2022-08-05T17:45:21.223Z,4.60
2022-08-05T17:47:53.839Z,2.70
2022-08-05T17:50:29.590Z,2.28
2022-08-05T17:53:04.737Z,2.22
2022-08-05T17:55:38.255Z,1.80
2022-08-05T17:58:10.800Z,1.83
2022-08-05T18:00:45.407Z,1.25
2022-08-05T18:06:04.257Z,0.85
2022-08-05T18:08:32.779Z,0.70
2022-08-05T18:11:00.617Z,0.45
2022-08-05T18:13:36.941Z,0.80
2022-08-05T18:16:13.270Z,0.60
2022-08-05T18:18:41.135Z,0.57
2022-08-05T18:21:13.373Z,0.70
2022-08-05T18:23:47.051Z,0.40
2022-08-05T18:26:13.826Z,0.57
2022-08-05T18:28:46.368Z,2.35
2022-08-05T18:31:13.155Z,0.95
2022-08-05T18:33:47.146Z,0.50
2022-08-05T18:36:17.058Z,0.82
2022-08-05T18:38:46.383Z,0.70
2022-08-05T18:41:55.434Z,0.55
2022-08-05T18:44:05.577Z,0.80
2022-08-05T18:46:33.357Z,0.98
2022-08-05T18:49:00.400Z,0.77
2022-08-05T18:52:04.927Z,0.80
2022-08-05T18:54:13.477Z,0.65
2022-08-05T18:56:40.456Z,0.60
2022-08-05T18:59:50.672Z,0.80
2022-08-05T19:01:58.151Z,1.67
2022-08-05T19:04:25.621Z,0.63
2022-08-05T19:06:53.566Z,0.88
2022-08-05T19:09:21.081Z,0.70
2022-08-05T19:12:01.062Z,0.63
2022-08-05T19:14:53.379Z,1.15
2022-08-05T19:17:16.524Z,1.13
2022-08-05T19:19:46.647Z,0.70
2022-08-05T19:22:17.052Z,0.90
2022-08-05T19:24:54.392Z,0.70
2022-08-05T19:27:22.925Z,0.70
2022-08-05T19:29:49.762Z,1.00
2022-08-05T19:32:16.310Z,1.08
2022-08-05T19:34:55.145Z,0.82
2022-08-05T19:37:35.212Z,0.90
2022-08-05T19:40:10.740Z,1.05
2022-08-05T19:42:38.837Z,0.90
2022-08-05T19:45:06.485Z,1.08
2022-08-05T19:47:34.758Z,0.90
2022-08-05T19:50:07.573Z,1.13
2022-08-05T19:52:36.968Z,1.00
2022-08-05T19:55:07.046Z,0.80
2022-08-05T19:58:14.685Z,0.80
2022-08-05T20:00:36.846Z,0.85
2022-08-05T20:03:05.361Z,1.17
2022-08-05T20:05:50.310Z,0.85
2022-08-05T20:08:18.394Z,1.20
2022-08-05T20:10:44.907Z,1.50
2022-08-05T20:13:17.422Z,1.05
2022-08-05T20:15:52.304Z,1.38
2022-08-05T20:18:33.272Z,1.10
2022-08-05T20:21:02.847Z,1.30
2022-08-05T20:23:40.569Z,1.05
2022-08-05T20:26:23.323Z,0.80
2022-08-05T20:28:52.766Z,0.90
2022-08-05T20:31:36.773Z,0.90
2022-08-05T20:34:08.570Z,1.00
2022-08-05T20:36:35.152Z,1.20
2022-08-05T20:39:01.736Z,0.75
2022-08-05T20:41:43.423Z,0.80
2022-08-05T20:44:15.463Z,1.30
2022-08-05T20:46:46.981Z,0.90
2022-08-05T20:49:13.916Z,0.60
2022-08-05T20:51:40.567Z,0.82
2022-08-05T20:54:07.264Z,1.38
2022-08-05T20:56:42.444Z,1.70
2022-08-05T20:59:18.878Z,1.50
2022-08-05T21:01:46.955Z,1.98
2022-08-05T21:04:13.805Z,1.30
2022-08-05T21:06:45.179Z,1.10
2022-08-05T21:09:14.576Z,1.13
2022-08-05T21:12:10.463Z,0.70
2022-08-05T21:14:34.936Z,0.70
2022-08-05T21:17:06.096Z,0.70
2022-08-05T21:19:47.232Z,1.25
2022-08-05T21:22:18.536Z,0.90
2022-08-05T21:24:51.876Z,0.90
2022-08-05T21:27:25.441Z,0.75
2022-08-05T21:29:57.367Z,0.93
2022-08-05T21:32:27.019Z,0.70
2022-08-05T21:35:16.763Z,1.00
2022-08-05T21:37:42.495Z,0.77
2022-08-05T21:40:14.212Z,0.85
2022-08-05T21:42:45.107Z,0.70
2022-08-05T21:45:12.521Z,1.00
2022-08-05T21:47:56.774Z,1.00
2022-08-05T21:50:26.063Z,1.17
2022-08-05T21:52:52.968Z,0.85
2022-08-05T21:56:01.197Z,0.73
2022-08-05T21:58:06.670Z,1.13
2022-08-05T22:00:33.478Z,1.17
2022-08-05T22:03:00.450Z,1.00
2022-08-05T22:05:27.476Z,1.13
2022-08-05T22:08:02.241Z,0.90
2022-08-05T22:10:29.412Z,0.80
2022-08-05T22:12:58.996Z,0.85
2022-08-05T22:16:00.482Z,1.25
2022-08-05T22:18:22.595Z,0.80
2022-08-05T22:20:52.668Z,0.90
2022-08-05T22:23:21.381Z,0.70
2022-08-05T22:26:09.938Z,0.63
2022-08-05T22:28:36.267Z,0.77
2022-08-05T22:31:05.989Z,0.90
2022-08-05T22:33:57.490Z,0.73
2022-08-05T22:36:19.619Z,0.80
2022-08-05T22:38:51.395Z,0.60
2022-08-05T22:42:04.668Z,0.60
2022-08-05T22:44:08.384Z,0.80
2022-08-05T22:46:40.224Z,0.80
2022-08-05T22:49:12.114Z,0.60
2022-08-05T22:52:06.101Z,1.30
2022-08-05T22:54:38.805Z,0.70
2022-08-05T22:57:06.421Z,0.90
2022-08-05T22:59:46.059Z,0.60
2022-08-05T23:02:18.167Z,0.60
2022-08-05T23:04:51.889Z,0.60
2022-08-05T23:07:19.825Z,0.80
2022-08-05T23:09:58.141Z,0.70
2022-08-05T23:12:29.176Z,0.80
2022-08-05T23:15:00.547Z,0.82
2022-08-05T23:17:34.202Z,1.00
2022-08-05T23:20:16.385Z,0.98
2022-08-05T23:22:48.538Z,1.00
2022-08-05T23:25:51.905Z,1.33
2022-08-05T23:28:07.180Z,1.10
2022-08-05T23:30:35.222Z,1.08
2022-08-05T23:33:07.419Z,1.00
2022-08-05T23:38:16.134Z,1.10
2022-08-05T23:40:49.707Z,1.10
2022-08-05T23:43:25.010Z,1.13
2022-08-05T23:46:21.104Z,1.30
2022-08-05T23:48:59.710Z,1.52
2022-08-05T23:51:33.364Z,1.17
2022-08-05T23:54:01.257Z,1.38
2022-08-05T23:56:28.015Z,1.30
2022-08-05T23:58:54.553Z,1.83
